sensor_id;sensor_type;location;lat;lon;timestamp;pressure;altitude;pressure_sealevel;temperature;humidity
30343;BME280;17145;49.902;8.680;'2023-06-04 01:59:45';100230;;;17;29
30343;BME280;17145;49.902;8.680;'2023-06-04 02:02:12';100230;;;16;29
30343;BME280;17145;49.902;8.680;'2023-06-04 02:04:39';100220;;;16;29
30343;BME280;17145;49.902;8.680;'2023-06-04 02:07:07';100220;;;16;29
30343;BME280;17145;49.902;8.680;'2023-06-04 02:09:34';100220;;;17;29
30343;BME280;17145;49.902;8.680;'2023-06-04 02:12:01';100220;;;16;29
30343;BME280;17145;49.902;8.680;'2023-06-04 02:14:29';100220;;;16;29
30343;BME280;17145;49.902;8.680;'2023-06-04 02:16:56';100220;;;16;29
30343;BME280;17145;49.902;8.680;'2023-06-04 02:19:24';100220;;;16;29
30343;BME280;17145;49.902;8.680;'2023-06-04 02:21:51';100220;;;17;29
30343;BME280;17145;49.902;8.680;'2023-06-04 02:24:19';100220;;;16;30
30343;BME280;17145;49.902;8.680;'2023-06-04 02:26:46';100220;;;16;29
30343;BME280;17145;49.902;8.680;'2023-06-04 02:29:14';100220;;;16;29
30343;BME280;17145;49.902;8.680;'2023-06-04 02:31:41';100220;;;16;29
30343;BME280;17145;49.902;8.680;'2023-06-04 02:34:10';100220;;;16;29
30343;BME280;17145;49.902;8.680;'2023-06-04 02:36:38';100220;;;16;30
30343;BME280;17145;49.902;8.680;'2023-06-04 02:39:06';100220;;;16;30
30343;BME280;17145;49.902;8.680;'2023-06-04 02:41:33';100220;;;16;30
30343;BME280;17145;49.902;8.680;'2023-06-04 02:44:01';100220;;;16;30
30343;BME280;17145;49.902;8.680;'2023-06-04 02:46:28';100220;;;16;30
30343;BME280;17145;49.902;8.680;'2023-06-04 02:48:56';100220;;;16;30
30343;BME280;17145;49.902;8.680;'2023-06-04 02:51:25';100220;;;16;30
30343;BME280;17145;49.902;8.680;'2023-06-04 02:53:53';100230;;;16;30
30343;BME280;17145;49.902;8.680;'2023-06-04 02:56:20';100230;;;16;30
30343;BME280;17145;49.902;8.680;'2023-06-04 02:58:48';100230;;;16;30
30343;BME280;17145;49.902;8.680;'2023-06-04 03:01:25';100230;;;16;30
30343;BME280;17145;49.902;8.680;'2023-06-04 03:03:55';100230;;;16;30
30343;BME280;17145;49.902;8.680;'2023-06-04 03:06:30';100230;;;16;30
30343;BME280;17145;49.902;8.680;'2023-06-04 03:08:58';100220;;;16;30
30343;BME280;17145;49.902;8.680;'2023-06-04 03:11:31';100230;;;15;30
30343;BME280;17145;49.902;8.680;'2023-06-04 03:13:58';100230;;;15;30
30343;BME280;17145;49.902;8.680;'2023-06-04 03:16:29';100230;;;15;30
30343;BME280;17145;49.902;8.680;'2023-06-04 03:19:01';100220;;;15;30
30343;BME280;17145;49.902;8.680;'2023-06-04 03:21:34';100220;;;15;30
30343;BME280;17145;49.902;8.680;'2023-06-04 03:24:04';100220;;;15;30
30343;BME280;17145;49.902;8.680;'2023-06-04 03:26:32';100230;;;15;30
30343;BME280;17145;49.902;8.680;'2023-06-04 03:29:01';100220;;;16;30
30343;BME280;17145;49.902;8.680;'2023-06-04 03:31:29';100230;;;15;30
30343;BME280;17145;49.902;8.680;'2023-06-04 03:33:56';100220;;;15;30
30343;BME280;17145;49.902;8.680;'2023-06-04 03:36:24';100230;;;15;30
30343;BME280;17145;49.902;8.680;'2023-06-04 03:38:52';100220;;;15;30
30343;BME280;17145;49.902;8.680;'2023-06-04 03:41:19';100220;;;15;30
30343;BME280;17145;49.902;8.680;'2023-06-04 03:43:46';100230;;;15;30
30343;BME280;17145;49.902;8.680;'2023-06-04 03:46:14';100230;;;15;30
30343;BME280;17145;49.902;8.680;'2023-06-04 03:48:41';100220;;;15;30
30343;BME280;17145;49.902;8.680;'2023-06-04 03:51:09';100220;;;15;30
30343;BME280;17145;49.902;8.680;'2023-06-04 03:53:36';100220;;;15;30
30343;BME280;17145;49.902;8.680;'2023-06-04 03:56:04';100220;;;15;30
30343;BME280;17145;49.902;8.680;'2023-06-04 03:58:31';100220;;;15;30
30343;BME280;17145;49.902;8.680;'2023-06-04 04:00:58';100220;;;15;30
30343;BME280;17145;49.902;8.680;'2023-06-04 04:03:26';100220;;;15;30
30343;BME280;17145;49.902;8.680;'2023-06-04 04:05:53';100220;;;15;30
30343;BME280;17145;49.902;8.680;'2023-06-04 04:08:21';100220;;;15;30
30343;BME280;17145;49.902;8.680;'2023-06-04 04:10:48';100220;;;15;30
30343;BME280;17145;49.902;8.680;'2023-06-04 04:13:16';100220;;;15;30
30343;BME280;17145;49.902;8.680;'2023-06-04 04:15:43';100220;;;15;30
30343;BME280;17145;49.902;8.680;'2023-06-04 04:18:15';100220;;;15;30
30343;BME280;17145;49.902;8.680;'2023-06-04 04:20:43';100220;;;15;30
30343;BME280;17145;49.902;8.680;'2023-06-04 04:23:10';100220;;;15;30
30343;BME280;17145;49.902;8.680;'2023-06-04 04:25:38';100220;;;15;31
30343;BME280;17145;49.902;8.680;'2023-06-04 04:28:05';100220;;;15;30
30343;BME280;17145;49.902;8.680;'2023-06-04 04:30:33';100220;;;15;30
30343;BME280;17145;49.902;8.680;'2023-06-04 04:33:00';100230;;;15;31
30343;BME280;17145;49.902;8.680;'2023-06-04 04:35:28';100230;;;15;31
30343;BME280;17145;49.902;8.680;'2023-06-04 04:37:56';100220;;;15;31
30343;BME280;17145;49.902;8.680;'2023-06-04 04:40:23';100230;;;15;30
30343;BME280;17145;49.902;8.680;'2023-06-04 04:42:51';100230;;;15;30
30343;BME280;17145;49.902;8.680;'2023-06-04 04:45:19';100230;;;15;30
30343;BME280;17145;49.902;8.680;'2023-06-04 04:47:46';100230;;;15;30
30343;BME280;17145;49.902;8.680;'2023-06-04 04:50:14';100230;;;15;31
30343;BME280;17145;49.902;8.680;'2023-06-04 04:52:42';100230;;;15;31
30343;BME280;17145;49.902;8.680;'2023-06-04 04:55:10';100230;;;15;30
30343;BME280;17145;49.902;8.680;'2023-06-04 04:57:40';100230;;;14;31
30343;BME280;17145;49.902;8.680;'2023-06-04 05:00:08';100230;;;15;31
30343;BME280;17145;49.902;8.680;'2023-06-04 05:02:35';100230;;;14;31
30343;BME280;17145;49.902;8.680;'2023-06-04 05:05:03';100230;;;15;31
30343;BME280;17145;49.902;8.680;'2023-06-04 05:07:31';100230;;;15;31
30343;BME280;17145;49.902;8.680;'2023-06-04 05:09:58';100230;;;15;31
30343;BME280;17145;49.902;8.680;'2023-06-04 05:12:25';100230;;;14;31
30343;BME280;17145;49.902;8.680;'2023-06-04 05:14:53';100230;;;14;31
30343;BME280;17145;49.902;8.680;'2023-06-04 05:17:20';100230;;;14;31
30343;BME280;17145;49.902;8.680;'2023-06-04 05:19:47';100230;;;14;31
30343;BME280;17145;49.902;8.680;'2023-06-04 05:22:15';100230;;;14;31
30343;BME280;17145;49.902;8.680;'2023-06-04 05:24:43';100230;;;14;31
30343;BME280;17145;49.902;8.680;'2023-06-04 05:27:11';100230;;;14;31
30343;BME280;17145;49.902;8.680;'2023-06-04 05:29:39';100230;;;14;31
30343;BME280;17145;49.902;8.680;'2023-06-04 05:32:07';100230;;;14;32
30343;BME280;17145;49.902;8.680;'2023-06-04 05:34:34';100240;;;14;31
30343;BME280;17145;49.902;8.680;'2023-06-04 05:37:02';100240;;;14;31
30343;BME280;17145;49.902;8.680;'2023-06-04 05:39:29';100240;;;14;31
30343;BME280;17145;49.902;8.680;'2023-06-04 05:41:57';100240;;;14;31
30343;BME280;17145;49.902;8.680;'2023-06-04 05:44:24';100240;;;14;31
30343;BME280;17145;49.902;8.680;'2023-06-04 05:46:51';100240;;;14;31
30343;BME280;17145;49.902;8.680;'2023-06-04 05:49:19';100240;;;14;32
30343;BME280;17145;49.902;8.680;'2023-06-04 05:51:46';100240;;;14;32
30343;BME280;17145;49.902;8.680;'2023-06-04 05:54:14';100240;;;14;32
30343;BME280;17145;49.902;8.680;'2023-06-04 05:56:42';100240;;;14;32
30343;BME280;17145;49.902;8.680;'2023-06-04 05:59:09';100240;;;14;33
30343;BME280;17145;49.902;8.680;'2023-06-04 06:01:37';100250;;;14;33
30343;BME280;17145;49.902;8.680;'2023-06-04 06:04:04';100240;;;14;33
30343;BME280;17145;49.902;8.680;'2023-06-04 06:06:32';100250;;;14;33
30343;BME280;17145;49.902;8.680;'2023-06-04 06:08:59';100240;;;14;33
30343;BME280;17145;49.902;8.680;'2023-06-04 06:11:26';100240;;;14;33
30343;BME280;17145;49.902;8.680;'2023-06-04 06:13:54';100240;;;14;33
30343;BME280;17145;49.902;8.680;'2023-06-04 06:16:21';100240;;;14;34
30343;BME280;17145;49.902;8.680;'2023-06-04 06:18:48';100250;;;14;33
30343;BME280;17145;49.902;8.680;'2023-06-04 06:21:16';100250;;;14;34
30343;BME280;17145;49.902;8.680;'2023-06-04 06:23:45';100250;;;14;34
30343;BME280;17145;49.902;8.680;'2023-06-04 06:26:12';100250;;;14;34
30343;BME280;17145;49.902;8.680;'2023-06-04 06:28:40';100260;;;14;34
30343;BME280;17145;49.902;8.680;'2023-06-04 06:31:07';100260;;;14;34
30343;BME280;17145;49.902;8.680;'2023-06-04 06:33:36';100260;;;14;34
30343;BME280;17145;49.902;8.680;'2023-06-04 06:36:03';100260;;;14;34
30343;BME280;17145;49.902;8.680;'2023-06-04 06:38:30';100260;;;14;33
30343;BME280;17145;49.902;8.680;'2023-06-04 06:40:58';100260;;;14;33
30343;BME280;17145;49.902;8.680;'2023-06-04 06:43:30';100270;;;14;34
30343;BME280;17145;49.902;8.680;'2023-06-04 06:45:57';100270;;;14;34
30343;BME280;17145;49.902;8.680;'2023-06-04 06:48:25';100270;;;14;34
30343;BME280;17145;49.902;8.680;'2023-06-04 06:50:52';100270;;;14;33
30343;BME280;17145;49.902;8.680;'2023-06-04 06:53:20';100270;;;14;33
30343;BME280;17145;49.902;8.680;'2023-06-04 06:55:47';100260;;;14;34
30343;BME280;17145;49.902;8.680;'2023-06-04 06:58:15';100270;;;14;34
30343;BME280;17145;49.902;8.680;'2023-06-04 07:00:43';100270;;;14;33
30343;BME280;17145;49.902;8.680;'2023-06-04 07:03:10';100270;;;14;33
30343;BME280;17145;49.902;8.680;'2023-06-04 07:05:37';100280;;;14;34
30343;BME280;17145;49.902;8.680;'2023-06-04 07:08:05';100280;;;15;34
30343;BME280;17145;49.902;8.680;'2023-06-04 07:10:33';100280;;;15;34
30343;BME280;17145;49.902;8.680;'2023-06-04 07:13:00';100280;;;14;34
30343;BME280;17145;49.902;8.680;'2023-06-04 07:15:28';100280;;;15;33
30343;BME280;17145;49.902;8.680;'2023-06-04 07:17:55';100290;;;15;33
30343;BME280;17145;49.902;8.680;'2023-06-04 07:20:23';100290;;;15;34
30343;BME280;17145;49.902;8.680;'2023-06-04 07:22:50';100290;;;15;33
30343;BME280;17145;49.902;8.680;'2023-06-04 07:25:18';100290;;;15;34
30343;BME280;17145;49.902;8.680;'2023-06-04 07:27:45';100300;;;15;33
30343;BME280;17145;49.902;8.680;'2023-06-04 07:30:13';100300;;;15;34
30343;BME280;17145;49.902;8.680;'2023-06-04 07:32:41';100300;;;15;33
30343;BME280;17145;49.902;8.680;'2023-06-04 07:35:09';100300;;;15;33
30343;BME280;17145;49.902;8.680;'2023-06-04 07:37:38';100300;;;15;32
30343;BME280;17145;49.902;8.680;'2023-06-04 07:40:07';100300;;;15;32
30343;BME280;17145;49.902;8.680;'2023-06-04 07:42:34';100300;;;15;32
30343;BME280;17145;49.902;8.680;'2023-06-04 07:45:02';100300;;;15;32
30343;BME280;17145;49.902;8.680;'2023-06-04 07:47:29';100300;;;15;32
30343;BME280;17145;49.902;8.680;'2023-06-04 07:49:57';100300;;;16;33
30343;BME280;17145;49.902;8.680;'2023-06-04 07:52:24';100300;;;16;33
30343;BME280;17145;49.902;8.680;'2023-06-04 07:54:52';100300;;;16;32
30343;BME280;17145;49.902;8.680;'2023-06-04 07:57:20';100300;;;16;32
30343;BME280;17145;49.902;8.680;'2023-06-04 07:59:48';100300;;;16;31
30343;BME280;17145;49.902;8.680;'2023-06-04 08:02:15';100300;;;16;31
30343;BME280;17145;49.902;8.680;'2023-06-04 08:04:42';100310;;;16;31
30343;BME280;17145;49.902;8.680;'2023-06-04 08:07:09';100310;;;16;31
30343;BME280;17145;49.902;8.680;'2023-06-04 08:09:37';100310;;;16;31
30343;BME280;17145;49.902;8.680;'2023-06-04 08:12:04';100310;;;16;31
30343;BME280;17145;49.902;8.680;'2023-06-04 08:14:32';100300;;;16;31
30343;BME280;17145;49.902;8.680;'2023-06-04 08:16:59';100300;;;16;31
30343;BME280;17145;49.902;8.680;'2023-06-04 08:19:26';100310;;;16;30
30343;BME280;17145;49.902;8.680;'2023-06-04 08:21:54';100310;;;16;30
30343;BME280;17145;49.902;8.680;'2023-06-04 08:24:21';100320;;;16;31
30343;BME280;17145;49.902;8.680;'2023-06-04 08:26:49';100320;;;17;31
30343;BME280;17145;49.902;8.680;'2023-06-04 08:29:16';100320;;;17;30
30343;BME280;17145;49.902;8.680;'2023-06-04 08:31:43';100320;;;17;30
30343;BME280;17145;49.902;8.680;'2023-06-04 08:34:10';100320;;;17;30
30343;BME280;17145;49.902;8.680;'2023-06-04 08:36:38';100320;;;17;30
30343;BME280;17145;49.902;8.680;'2023-06-04 08:39:05';100320;;;17;29
30343;BME280;17145;49.902;8.680;'2023-06-04 08:41:33';100330;;;17;29
30343;BME280;17145;49.902;8.680;'2023-06-04 08:44:00';100330;;;17;29
30343;BME280;17145;49.902;8.680;'2023-06-04 08:46:27';100330;;;17;30
30343;BME280;17145;49.902;8.680;'2023-06-04 08:48:55';100330;;;17;29
30343;BME280;17145;49.902;8.680;'2023-06-04 08:51:22';100340;;;17;29
30343;BME280;17145;49.902;8.680;'2023-06-04 08:53:50';100340;;;17;30
30343;BME280;17145;49.902;8.680;'2023-06-04 08:56:18';100340;;;17;30
30343;BME280;17145;49.902;8.680;'2023-06-04 08:58:45';100330;;;17;29
30343;BME280;17145;49.902;8.680;'2023-06-04 09:01:13';100340;;;18;30
30343;BME280;17145;49.902;8.680;'2023-06-04 09:03:40';100340;;;18;29
30343;BME280;17145;49.902;8.680;'2023-06-04 09:06:08';100340;;;18;28
30343;BME280;17145;49.902;8.680;'2023-06-04 09:08:36';100340;;;18;29
30343;BME280;17145;49.902;8.680;'2023-06-04 09:11:03';100340;;;18;29
30343;BME280;17145;49.902;8.680;'2023-06-04 09:13:31';100340;;;18;29
30343;BME280;17145;49.902;8.680;'2023-06-04 09:15:58';100340;;;18;29
30343;BME280;17145;49.902;8.680;'2023-06-04 09:18:25';100340;;;18;29
30343;BME280;17145;49.902;8.680;'2023-06-04 09:20:53';100340;;;18;29
30343;BME280;17145;49.902;8.680;'2023-06-04 09:23:20';100340;;;18;29
30343;BME280;17145;49.902;8.680;'2023-06-04 09:25:48';100340;;;18;29
30343;BME280;17145;49.902;8.680;'2023-06-04 09:28:15';100340;;;18;29
30343;BME280;17145;49.902;8.680;'2023-06-04 09:30:45';100340;;;18;29
30343;BME280;17145;49.902;8.680;'2023-06-04 09:33:12';100330;;;18;29
30343;BME280;17145;49.902;8.680;'2023-06-04 09:35:40';100330;;;18;29
30343;BME280;17145;49.902;8.680;'2023-06-04 09:38:07';100340;;;18;28
30343;BME280;17145;49.902;8.680;'2023-06-04 09:40:34';100340;;;18;28
30343;BME280;17145;49.902;8.680;'2023-06-04 09:43:02';100340;;;19;29
30343;BME280;17145;49.902;8.680;'2023-06-04 09:45:29';100340;;;18;29
30343;BME280;17145;49.902;8.680;'2023-06-04 09:47:57';100340;;;19;29
30343;BME280;17145;49.902;8.680;'2023-06-04 09:50:24';100340;;;18;28
30343;BME280;17145;49.902;8.680;'2023-06-04 09:52:52';100340;;;19;28
30343;BME280;17145;49.902;8.680;'2023-06-04 09:55:19';100340;;;19;28
30343;BME280;17145;49.902;8.680;'2023-06-04 09:57:46';100340;;;19;28
30343;BME280;17145;49.902;8.680;'2023-06-04 10:00:15';100340;;;19;28
30343;BME280;17145;49.902;8.680;'2023-06-04 10:02:42';100340;;;19;28
30343;BME280;17145;49.902;8.680;'2023-06-04 10:05:09';100340;;;19;27
30343;BME280;17145;49.902;8.680;'2023-06-04 10:07:37';100340;;;19;27
30343;BME280;17145;49.902;8.680;'2023-06-04 10:10:06';100340;;;19;27
30343;BME280;17145;49.902;8.680;'2023-06-04 10:12:33';100340;;;20;27
30343;BME280;17145;49.902;8.680;'2023-06-04 10:15:00';100340;;;20;27
30343;BME280;17145;49.902;8.680;'2023-06-04 10:17:28';100340;;;20;27
30343;BME280;17145;49.902;8.680;'2023-06-04 10:19:56';100340;;;20;27
30343;BME280;17145;49.902;8.680;'2023-06-04 10:22:23';100340;;;20;27
30343;BME280;17145;49.902;8.680;'2023-06-04 10:24:50';100340;;;20;27
30343;BME280;17145;49.902;8.680;'2023-06-04 10:27:18';100340;;;20;27
30343;BME280;17145;49.902;8.680;'2023-06-04 10:29:45';100340;;;20;27
30343;BME280;17145;49.902;8.680;'2023-06-04 10:32:13';100340;;;20;27
30343;BME280;17145;49.902;8.680;'2023-06-04 10:34:40';100330;;;20;27
30343;BME280;17145;49.902;8.680;'2023-06-04 10:37:07';100340;;;20;26
30343;BME280;17145;49.902;8.680;'2023-06-04 10:39:35';100340;;;20;26
30343;BME280;17145;49.902;8.680;'2023-06-04 10:42:06';100340;;;20;26
30343;BME280;17145;49.902;8.680;'2023-06-04 10:44:34';100340;;;20;25
30343;BME280;17145;49.902;8.680;'2023-06-04 10:47:04';100340;;;21;26
30343;BME280;17145;49.902;8.680;'2023-06-04 10:49:34';100340;;;21;25
30343;BME280;17145;49.902;8.680;'2023-06-04 10:52:02';100340;;;21;25
30343;BME280;17145;49.902;8.680;'2023-06-04 10:54:30';100350;;;21;25
30343;BME280;17145;49.902;8.680;'2023-06-04 10:56:57';100350;;;21;25
30343;BME280;17145;49.902;8.680;'2023-06-04 10:59:25';100350;;;21;25
30343;BME280;17145;49.902;8.680;'2023-06-04 11:01:54';100350;;;21;25
30343;BME280;17145;49.902;8.680;'2023-06-04 11:04:21';100350;;;21;25
30343;BME280;17145;49.902;8.680;'2023-06-04 11:06:49';100350;;;21;25
30343;BME280;17145;49.902;8.680;'2023-06-04 11:09:18';100350;;;21;24
30343;BME280;17145;49.902;8.680;'2023-06-04 11:11:51';100360;;;22;25
30343;BME280;17145;49.902;8.680;'2023-06-04 11:14:19';100360;;;22;25
30343;BME280;17145;49.902;8.680;'2023-06-04 11:16:49';100350;;;22;24
30343;BME280;17145;49.902;8.680;'2023-06-04 11:19:18';100350;;;22;24
30343;BME280;17145;49.902;8.680;'2023-06-04 11:21:48';100350;;;22;24
30343;BME280;17145;49.902;8.680;'2023-06-04 11:24:16';100350;;;22;23
30343;BME280;17145;49.902;8.680;'2023-06-04 11:26:44';100350;;;22;23
30343;BME280;17145;49.902;8.680;'2023-06-04 11:29:11';100350;;;22;23
30343;BME280;17145;49.902;8.680;'2023-06-04 11:31:38';100350;;;22;23
30343;BME280;17145;49.902;8.680;'2023-06-04 11:34:07';100340;;;22;24
30343;BME280;17145;49.902;8.680;'2023-06-04 11:36:35';100340;;;23;23
30343;BME280;17145;49.902;8.680;'2023-06-04 11:39:03';100340;;;22;23
30343;BME280;17145;49.902;8.680;'2023-06-04 11:41:30';100340;;;22;22
30343;BME280;17145;49.902;8.680;'2023-06-04 11:44:01';100340;;;22;22
30343;BME280;17145;49.902;8.680;'2023-06-04 11:46:29';100330;;;22;23
30343;BME280;17145;49.902;8.680;'2023-06-04 11:49:02';100330;;;22;23
30343;BME280;17145;49.902;8.680;'2023-06-04 11:51:29';100330;;;22;23
30343;BME280;17145;49.902;8.680;'2023-06-04 11:53:59';100330;;;23;24
30343;BME280;17145;49.902;8.680;'2023-06-04 11:56:27';100330;;;22;24
30343;BME280;17145;49.902;8.680;'2023-06-04 11:58:55';100330;;;23;23
30343;BME280;17145;49.902;8.680;'2023-06-04 12:01:25';100330;;;23;22
30343;BME280;17145;49.902;8.680;'2023-06-04 12:03:53';100330;;;23;21
30343;BME280;17145;49.902;8.680;'2023-06-04 12:06:22';100330;;;23;21
30343;BME280;17145;49.902;8.680;'2023-06-04 12:08:50';100330;;;23;21
30343;BME280;17145;49.902;8.680;'2023-06-04 12:11:25';100330;;;23;21
30343;BME280;17145;49.902;8.680;'2023-06-04 12:13:57';100340;;;23;21
30343;BME280;17145;49.902;8.680;'2023-06-04 12:16:26';100330;;;23;21
30343;BME280;17145;49.902;8.680;'2023-06-04 12:18:53';100320;;;23;21
30343;BME280;17145;49.902;8.680;'2023-06-04 12:21:22';100330;;;23;21
30343;BME280;17145;49.902;8.680;'2023-06-04 12:23:50';100320;;;23;21
30343;BME280;17145;49.902;8.680;'2023-06-04 12:26:17';100320;;;23;21
30343;BME280;17145;49.902;8.680;'2023-06-04 12:28:45';100320;;;24;21
30343;BME280;17145;49.902;8.680;'2023-06-04 12:31:12';100320;;;24;21
30343;BME280;17145;49.902;8.680;'2023-06-04 12:33:40';100320;;;24;20
30343;BME280;17145;49.902;8.680;'2023-06-04 12:36:18';100330;;;24;20
30343;BME280;17145;49.902;8.680;'2023-06-04 12:38:46';100320;;;24;19
30343;BME280;17145;49.902;8.680;'2023-06-04 12:41:14';100320;;;24;20
30343;BME280;17145;49.902;8.680;'2023-06-04 12:43:42';100320;;;24;19
30343;BME280;17145;49.902;8.680;'2023-06-04 12:46:14';100320;;;25;19
30343;BME280;17145;49.902;8.680;'2023-06-04 12:48:47';100320;;;25;19
30343;BME280;17145;49.902;8.680;'2023-06-04 12:51:21';100320;;;25;19
30343;BME280;17145;49.902;8.680;'2023-06-04 12:53:48';100320;;;25;19
30343;BME280;17145;49.902;8.680;'2023-06-04 12:56:24';100320;;;25;19
30343;BME280;17145;49.902;8.680;'2023-06-04 12:58:51';100320;;;25;18
30343;BME280;17145;49.902;8.680;'2023-06-04 13:01:24';100320;;;25;18
30343;BME280;17145;49.902;8.680;'2023-06-04 13:03:51';100320;;;25;19
30343;BME280;17145;49.902;8.680;'2023-06-04 13:06:18';100320;;;26;18
30343;BME280;17145;49.902;8.680;'2023-06-04 13:08:46';100310;;;26;18
30343;BME280;17145;49.902;8.680;'2023-06-04 13:11:14';100310;;;26;18
30343;BME280;17145;49.902;8.680;'2023-06-04 13:13:43';100310;;;26;18
30343;BME280;17145;49.902;8.680;'2023-06-04 13:16:16';100310;;;26;18
30343;BME280;17145;49.902;8.680;'2023-06-04 13:18:44';100300;;;26;18
30343;BME280;17145;49.902;8.680;'2023-06-04 13:21:11';100300;;;26;18
30343;BME280;17145;49.902;8.680;'2023-06-04 13:23:39';100300;;;27;17
30343;BME280;17145;49.902;8.680;'2023-06-04 13:26:06';100290;;;26;16
30343;BME280;17145;49.902;8.680;'2023-06-04 13:28:34';100290;;;27;16
30343;BME280;17145;49.902;8.680;'2023-06-04 13:31:02';100300;;;26;17
30343;BME280;17145;49.902;8.680;'2023-06-04 13:33:30';100300;;;27;17
30343;BME280;17145;49.902;8.680;'2023-06-04 13:35:57';100300;;;27;16
30343;BME280;17145;49.902;8.680;'2023-06-04 13:38:24';100300;;;27;17
30343;BME280;17145;49.902;8.680;'2023-06-04 13:40:58';100290;;;27;16
30343;BME280;17145;49.902;8.680;'2023-06-04 13:43:26';100280;;;27;16
30343;BME280;17145;49.902;8.680;'2023-06-04 13:45:54';100280;;;27;15
30343;BME280;17145;49.902;8.680;'2023-06-04 13:48:22';100280;;;27;15
30343;BME280;17145;49.902;8.680;'2023-06-04 13:50:49';100280;;;27;16
30343;BME280;17145;49.902;8.680;'2023-06-04 13:53:17';100280;;;28;15
30343;BME280;17145;49.902;8.680;'2023-06-04 13:55:45';100280;;;27;15
30343;BME280;17145;49.902;8.680;'2023-06-04 13:58:13';100280;;;27;16
30343;BME280;17145;49.902;8.680;'2023-06-04 14:00:40';100280;;;28;15
30343;BME280;17145;49.902;8.680;'2023-06-04 14:03:08';100270;;;28;14
30343;BME280;17145;49.902;8.680;'2023-06-04 14:05:35';100260;;;28;15
30343;BME280;17145;49.902;8.680;'2023-06-04 14:08:05';100260;;;28;15
30343;BME280;17145;49.902;8.680;'2023-06-04 14:10:37';100260;;;28;16
30343;BME280;17145;49.902;8.680;'2023-06-04 14:13:05';100260;;;28;15
30343;BME280;17145;49.902;8.680;'2023-06-04 14:15:33';100260;;;28;15
30343;BME280;17145;49.902;8.680;'2023-06-04 14:18:00';100260;;;28;14
30343;BME280;17145;49.902;8.680;'2023-06-04 14:20:33';100260;;;27;15
30343;BME280;17145;49.902;8.680;'2023-06-04 14:23:01';100260;;;27;14
30343;BME280;17145;49.902;8.680;'2023-06-04 14:25:29';100270;;;27;15
30343;BME280;17145;49.902;8.680;'2023-06-04 14:27:57';100260;;;27;15
30343;BME280;17145;49.902;8.680;'2023-06-04 14:30:35';100260;;;27;15
30343;BME280;17145;49.902;8.680;'2023-06-04 14:33:03';100260;;;27;15
30343;BME280;17145;49.902;8.680;'2023-06-04 14:35:31';100260;;;28;15
30343;BME280;17145;49.902;8.680;'2023-06-04 14:37:58';100270;;;27;15
30343;BME280;17145;49.902;8.680;'2023-06-04 14:40:25';100260;;;28;15
30343;BME280;17145;49.902;8.680;'2023-06-04 14:42:53';100260;;;28;14
30343;BME280;17145;49.902;8.680;'2023-06-04 14:45:20';100260;;;28;14
30343;BME280;17145;49.902;8.680;'2023-06-04 14:47:48';100260;;;29;14
30343;BME280;17145;49.902;8.680;'2023-06-04 14:50:15';100260;;;28;14
30343;BME280;17145;49.902;8.680;'2023-06-04 14:52:43';100250;;;29;14
30343;BME280;17145;49.902;8.680;'2023-06-04 14:55:10';100250;;;29;14
30343;BME280;17145;49.902;8.680;'2023-06-04 14:57:38';100250;;;29;13
30343;BME280;17145;49.902;8.680;'2023-06-04 15:00:07';100250;;;29;14
30343;BME280;17145;49.902;8.680;'2023-06-04 15:02:34';100250;;;29;13
30343;BME280;17145;49.902;8.680;'2023-06-04 15:05:02';100240;;;29;13
30343;BME280;17145;49.902;8.680;'2023-06-04 15:07:30';100240;;;29;13
30343;BME280;17145;49.902;8.680;'2023-06-04 15:09:57';100240;;;29;13
30343;BME280;17145;49.902;8.680;'2023-06-04 15:12:25';100230;;;30;13
30343;BME280;17145;49.902;8.680;'2023-06-04 15:14:52';100240;;;29;13
30343;BME280;17145;49.902;8.680;'2023-06-04 15:17:19';100230;;;30;14
30343;BME280;17145;49.902;8.680;'2023-06-04 15:19:47';100230;;;30;13
30343;BME280;17145;49.902;8.680;'2023-06-04 15:22:14';100230;;;30;12
30343;BME280;17145;49.902;8.680;'2023-06-04 15:24:42';100230;;;30;12
30343;BME280;17145;49.902;8.680;'2023-06-04 15:27:09';100230;;;31;12
30343;BME280;17145;49.902;8.680;'2023-06-04 15:29:37';100230;;;31;13
30343;BME280;17145;49.902;8.680;'2023-06-04 15:32:04';100230;;;30;12
30343;BME280;17145;49.902;8.680;'2023-06-04 15:34:32';100220;;;31;13
30343;BME280;17145;49.902;8.680;'2023-06-04 15:36:59';100230;;;31;12
30343;BME280;17145;49.902;8.680;'2023-06-04 15:39:27';100220;;;31;12
30343;BME280;17145;49.902;8.680;'2023-06-04 15:41:54';100230;;;31;12
30343;BME280;17145;49.902;8.680;'2023-06-04 15:44:21';100220;;;30;12
30343;BME280;17145;49.902;8.680;'2023-06-04 15:46:49';100220;;;31;12
30343;BME280;17145;49.902;8.680;'2023-06-04 15:49:16';100210;;;30;12
30343;BME280;17145;49.902;8.680;'2023-06-04 15:51:44';100210;;;31;12
30343;BME280;17145;49.902;8.680;'2023-06-04 15:54:11';100210;;;30;13
30343;BME280;17145;49.902;8.680;'2023-06-04 15:56:39';100210;;;30;12
30343;BME280;17145;49.902;8.680;'2023-06-04 15:59:06';100210;;;30;12
30343;BME280;17145;49.902;8.680;'2023-06-04 16:01:33';100200;;;30;12
30343;BME280;17145;49.902;8.680;'2023-06-04 16:04:01';100200;;;30;12
30343;BME280;17145;49.902;8.680;'2023-06-04 16:06:28';100200;;;29;14
30343;BME280;17145;49.902;8.680;'2023-06-04 16:08:56';100200;;;30;14
30343;BME280;17145;49.902;8.680;'2023-06-04 16:11:23';100200;;;29;13